Time;durP1;ratioP1;P1;durP2;ratioP2;P2;SDS_P1;SDS_P2;PMS_P1;PMS_P2;Temp;Humidity;BMP_temperature;BMP_pressure;BME280_temperature;BME280_humidity;BME280_pressure;Samples;Min_cycle;Max_cycle;Signal;HPM_P1;HPM_P2
2021/09/11 00:00:38;;;;;;;9.35;8.35;;;;;;;19.98;68.97;96810.13;4956850;28;20055;-80
2021/09/11 00:03:06;;;;;;;8.85;7.95;;;;;;;19.98;69.01;96813.56;4956855;28;20052;-80
2021/09/11 00:05:34;;;;;;;10.50;8.38;;;;;;;19.98;68.80;96812.78;4957077;28;20059;-80
2021/09/11 00:08:03;;;;;;;9.10;8.20;;;;;;;19.94;68.99;96815.91;4957735;28;20055;-79
2021/09/11 00:10:31;;;;;;;9.60;7.20;;;;;;;19.95;69.53;96817.50;4957279;28;20509;-79
2021/09/11 00:12:59;;;;;;;8.27;7.47;;;;;;;19.99;68.27;96817.84;4956942;28;20489;-80
2021/09/11 00:15:31;;;;;;;8.25;7.43;;;;;;;20.01;68.58;96818.41;4956919;28;20137;-78
2021/09/11 00:20:35;;;;;;;7.40;6.70;;;;;;;20.10;68.21;96809.06;5380656;23;20058;-79
2021/09/11 00:23:09;;;;;;;7.53;6.80;;;;;;;20.16;68.09;96815.25;4962601;29;20039;-79
2021/09/11 00:25:37;;;;;;;7.70;7.00;;;;;;;20.20;67.55;96810.25;4962563;29;20099;-79
2021/09/11 00:28:06;;;;;;;7.63;6.82;;;;;;;20.24;67.50;96808.75;4962354;29;20101;-79
2021/09/11 00:30:34;;;;;;;7.65;6.95;;;;;;;20.30;67.58;96807.81;4962223;29;20122;-78
2021/09/11 00:33:02;;;;;;;9.05;7.95;;;;;;;20.34;66.87;96808.94;4962433;29;20056;-78
2021/09/11 00:35:30;;;;;;;8.02;7.05;;;;;;;20.38;66.79;96804.78;4962397;29;20036;-79
2021/09/11 00:37:58;;;;;;;8.38;7.47;;;;;;;20.39;66.03;96803.72;4962342;29;20038;-79
2021/09/11 00:40:28;;;;;;;9.43;7.82;;;;;;;20.35;66.14;96797.28;4962163;29;20035;-79
2021/09/11 00:42:55;;;;;;;8.48;7.50;;;;;;;20.35;66.21;96802.59;4962182;29;20066;-79
2021/09/11 00:45:24;;;;;;;8.88;7.85;;;;;;;20.34;66.46;96803.66;4962274;29;20055;-78
2021/09/11 00:47:52;;;;;;;9.38;7.72;;;;;;;20.31;66.26;96809.41;4962167;29;20032;-79
2021/09/11 00:50:21;;;;;;;7.70;6.93;;;;;;;20.28;66.52;96812.53;4961950;29;20095;-78
2021/09/11 00:52:50;;;;;;;7.68;6.97;;;;;;;20.23;66.67;96810.59;4962193;29;20087;-77
2021/09/11 00:55:20;;;;;;;8.80;7.60;;;;;;;20.17;66.84;96811.56;4962124;29;20047;-79
2021/09/11 00:57:50;;;;;;;8.70;7.90;;;;;;;20.13;66.59;96819.16;4961749;29;20050;-79
2021/09/11 01:00:18;;;;;;;8.27;7.47;;;;;;;20.10;66.79;96811.69;4961944;29;20035;-79
2021/09/11 01:02:46;;;;;;;8.30;7.50;;;;;;;20.10;66.82;96810.91;4961857;29;20066;-78
2021/09/11 01:05:15;;;;;;;8.30;7.18;;;;;;;20.10;66.67;96806.41;4962043;29;20031;-78
2021/09/11 01:07:46;;;;;;;9.25;8.27;;;;;;;20.09;66.81;96812.72;4961890;29;20043;-78
2021/09/11 01:10:14;;;;;;;8.65;7.75;;;;;;;20.07;66.87;96812.19;4961545;29;20066;-78
2021/09/11 01:12:42;;;;;;;8.07;7.35;;;;;;;20.05;66.87;96803.66;4961626;29;20087;-78
2021/09/11 01:15:13;;;;;;;12.27;8.13;;;;;;;20.03;66.89;96811.03;4961657;29;20046;-78
2021/09/11 01:17:43;;;;;;;7.97;7.18;;;;;;;20.00;66.84;96800.91;4961540;29;20087;-78
2021/09/11 01:20:12;;;;;;;10.07;7.70;;;;;;;19.97;66.85;96806.69;4961192;29;20047;-78
2021/09/11 01:22:40;;;;;;;7.85;7.07;;;;;;;19.93;66.82;96810.84;4961474;29;20051;-78
2021/09/11 01:25:11;;;;;;;9.07;8.15;;;;;;;19.87;67.03;96804.63;4961432;29;20092;-79
2021/09/11 01:27:39;;;;;;;9.75;8.35;;;;;;;19.83;67.09;96805.34;4961318;29;20038;-78
2021/09/11 01:30:11;;;;;;;8.85;7.68;;;;;;;19.81;67.36;96804.78;4961018;29;20062;-79
2021/09/11 01:32:39;;;;;;;7.70;7.00;;;;;;;19.79;67.09;96801.56;4961228;29;20100;-78
2021/09/11 01:35:09;;;;;;;9.32;8.38;;;;;;;19.75;67.18;96803.88;4961309;29;20040;-79
2021/09/11 01:37:37;;;;;;;12.65;8.23;;;;;;;19.71;67.20;96798.25;4960651;29;20095;-79
2021/09/11 01:40:06;;;;;;;8.30;7.50;;;;;;;19.69;67.19;96805.63;4960993;29;20051;-77
2021/09/11 01:42:36;;;;;;;9.20;7.50;;;;;;;19.67;67.47;96810.31;4960915;29;20103;-79
2021/09/11 01:45:09;;;;;;;8.98;8.18;;;;;;;19.66;67.48;96811.38;4961060;29;20038;-78
2021/09/11 01:47:38;;;;;;;10.27;7.97;;;;;;;19.65;67.33;96804.44;4960895;29;20102;-78
2021/09/11 01:50:08;;;;;;;8.82;7.75;;;;;;;19.63;67.45;96817.09;4960940;29;20062;-78
2021/09/11 01:52:36;;;;;;;8.63;7.82;;;;;;;19.62;67.38;96815.50;4960850;29;20042;-79
2021/09/11 01:55:07;;;;;;;8.02;6.90;;;;;;;19.63;67.44;96817.09;4960932;29;20059;-78
2021/09/11 01:57:38;;;;;;;8.27;7.47;;;;;;;19.64;67.56;96816.09;4960718;29;20071;-78
2021/09/11 02:00:06;;;;;;;9.15;7.18;;;;;;;19.64;67.41;96820.56;4960646;29;20070;-79
2021/09/11 02:02:34;;;;;;;8.18;7.38;;;;;;;19.61;67.47;96821.81;4960642;29;20074;-78
2021/09/11 02:05:02;;;;;;;8.60;7.30;;;;;;;19.60;67.57;96820.22;4960615;29;20128;-79
2021/09/11 02:07:30;;;;;;;10.68;7.63;;;;;;;19.59;67.64;96826.56;4960599;29;20095;-78
2021/09/11 02:09:58;;;;;;;8.77;7.78;;;;;;;19.55;67.51;96820.94;4960335;29;20095;-78
2021/09/11 02:12:26;;;;;;;8.75;7.75;;;;;;;19.50;67.59;96820.84;4960662;29;20059;-78
2021/09/11 02:14:55;;;;;;;8.30;7.32;;;;;;;19.45;68.29;96819.91;4960535;29;20027;-79
2021/09/11 02:17:23;;;;;;;9.02;8.13;;;;;;;19.42;67.76;96823.03;4960365;29;20067;-79
2021/09/11 02:19:51;;;;;;;8.88;7.97;;;;;;;19.37;67.83;96814.97;4960386;29;20034;-78
2021/09/11 02:22:18;;;;;;;8.00;7.30;;;;;;;19.33;68.15;96820.75;4960558;29;20059;-78
2021/09/11 02:24:46;;;;;;;9.48;7.93;;;;;;;19.31;68.11;96820.16;4960338;29;20066;-78
2021/09/11 02:27:14;;;;;;;9.02;8.13;;;;;;;19.28;68.26;96820.63;4960248;29;20036;-78
2021/09/11 02:29:42;;;;;;;9.05;8.15;;;;;;;19.27;68.30;96824.31;4960176;29;20059;-79
2021/09/11 02:32:11;;;;;;;8.77;7.88;;;;;;;19.27;68.30;96821.66;4960452;29;20032;-79
2021/09/11 02:34:39;;;;;;;7.75;7.05;;;;;;;19.26;68.04;96822.72;4960335;29;20096;-78
2021/09/11 02:37:08;;;;;;;8.20;7.43;;;;;;;19.27;68.20;96821.66;4960222;29;20036;-78
2021/09/11 02:39:36;;;;;;;9.85;8.40;;;;;;;19.29;68.13;96821.44;4960241;29;20109;-78
2021/09/11 02:42:05;;;;;;;9.80;8.45;;;;;;;19.29;68.17;96824.09;4960181;29;20099;-78
2021/09/11 02:44:33;;;;;;;9.07;8.18;;;;;;;19.29;67.95;96822.25;4960006;29;20066;-78
2021/09/11 02:47:01;;;;;;;8.60;7.68;;;;;;;19.31;68.19;96822.81;4960232;29;20050;-78
2021/09/11 02:49:30;;;;;;;9.18;8.27;;;;;;;19.31;67.91;96829.94;4960593;29;20062;-78
2021/09/11 02:51:58;;;;;;;8.65;7.80;;;;;;;19.31;67.88;96828.09;4964230;29;20035;-78
2021/09/11 02:54:25;;;;;;;9.25;8.27;;;;;;;19.33;68.00;96825.25;4964117;29;20047;-78
2021/09/11 02:56:53;;;;;;;8.43;7.03;;;;;;;19.35;68.06;96828.44;4964013;29;20035;-78
2021/09/11 02:59:21;;;;;;;8.48;7.60;;;;;;;19.37;67.69;96831.66;4963927;29;20099;-78
2021/09/11 03:01:48;;;;;;;8.80;6.75;;;;;;;19.38;67.84;96824.53;4963893;29;20095;-78
2021/09/11 03:04:16;;;;;;;8.35;7.55;;;;;;;19.39;68.13;96826.94;4963635;29;20039;-78
2021/09/11 03:06:46;;;;;;;8.85;7.25;;;;;;;19.41;68.16;96826.69;4963940;29;20036;-78
2021/09/11 03:09:13;;;;;;;8.07;7.28;;;;;;;19.41;67.81;96827.50;4963805;29;20099;-79
2021/09/11 03:11:41;;;;;;;7.85;7.13;;;;;;;19.41;67.45;96829.34;4963750;28;20173;-78
2021/09/11 03:14:09;;;;;;;9.65;8.07;;;;;;;19.39;67.60;96831.41;4963871;29;20039;-78
2021/09/11 03:16:36;;;;;;;8.00;7.30;;;;;;;19.38;67.65;96829.81;4963609;29;20071;-78
2021/09/11 03:19:04;;;;;;;8.77;7.95;;;;;;;19.34;67.67;96824.97;4963643;29;20043;-78
2021/09/11 03:21:32;;;;;;;10.43;7.45;;;;;;;19.33;67.75;96828.69;4963479;29;20059;-78
2021/09/11 03:24:01;;;;;;;10.13;7.05;;;;;;;19.31;67.94;96820.16;4963447;29;20039;-78
2021/09/11 03:26:29;;;;;;;8.15;7.35;;;;;;;19.32;68.12;96827.06;4963293;29;20035;-78
2021/09/11 03:28:56;;;;;;;8.10;7.40;;;;;;;19.32;68.04;96816.47;4963232;29;20050;-78
2021/09/11 03:31:24;;;;;;;10.50;7.30;;;;;;;19.32;67.86;96821.75;4963495;29;20036;-78
2021/09/11 03:33:52;;;;;;;7.65;6.95;;;;;;;19.34;68.24;96824.19;4963342;29;20047;-79
2021/09/11 03:36:20;;;;;;;7.63;6.78;;;;;;;19.38;67.99;96824.53;4963115;29;20036;-79
2021/09/11 03:38:47;;;;;;;7.97;7.18;;;;;;;19.37;67.60;96822.91;4962978;29;20059;-79
2021/09/11 03:41:17;;;;;;;7.65;6.95;;;;;;;19.37;67.64;96815.78;4963360;28;20096;-78
2021/09/11 03:43:44;;;;;;;8.05;7.25;;;;;;;19.35;67.43;96820.53;4963231;29;20087;-78
2021/09/11 03:46:12;;;;;;;8.10;7.18;;;;;;;19.35;68.18;96825.81;4963068;29;20040;-79
2021/09/11 03:48:40;;;;;;;9.43;7.88;;;;;;;19.32;67.82;96829.69;4962899;29;20113;-78
2021/09/11 03:51:08;;;;;;;10.60;7.20;;;;;;;19.30;67.77;96828.31;4963109;29;20147;-79
2021/09/11 03:53:35;;;;;;;10.95;8.10;;;;;;;19.30;67.81;96831.78;4963152;29;20062;-78
2021/09/11 03:56:04;;;;;;;7.90;7.10;;;;;;;19.26;67.78;96825.34;4962844;29;20100;-78
2021/09/11 03:58:33;;;;;;;8.00;7.15;;;;;;;19.25;67.82;96817.66;4963041;29;20066;-79
2021/09/11 04:01:02;;;;;;;8.65;7.78;;;;;;;19.22;67.91;96826.84;4962417;29;20095;-79
2021/09/11 04:03:31;;;;;;;9.00;7.88;;;;;;;19.21;68.10;96822.59;4962925;29;20063;-78
2021/09/11 04:05:59;;;;;;;8.60;7.80;;;;;;;19.20;68.00;96825.44;4962789;29;20055;-78
2021/09/11 04:08:30;;;;;;;8.45;7.65;;;;;;;19.19;68.15;96822.00;4962585;29;20045;-78
2021/09/11 04:10:58;;;;;;;8.63;7.75;;;;;;;19.17;67.66;96829.38;4962879;29;20035;-78
2021/09/11 04:13:26;;;;;;;9.32;8.40;;;;;;;19.16;68.19;96833.06;4962667;29;20031;-79
2021/09/11 04:15:55;;;;;;;9.18;8.00;;;;;;;19.13;68.04;96829.03;4962627;29;20100;-79
2021/09/11 04:18:23;;;;;;;8.82;7.93;;;;;;;19.12;68.20;96832.69;4962537;29;20059;-79
2021/09/11 04:20:50;;;;;;;8.93;8.05;;;;;;;19.11;68.23;96839.03;4962431;29;20123;-79
2021/09/11 04:23:18;;;;;;;8.55;7.75;;;;;;;19.08;68.21;96825.47;4962428;29;20059;-79
2021/09/11 04:25:46;;;;;;;9.10;8.20;;;;;;;19.07;68.36;96837.09;4962378;29;20048;-78
2021/09/11 04:28:13;;;;;;;8.40;7.70;;;;;;;19.04;68.39;96840.16;4962374;29;20126;-79
2021/09/11 04:30:41;;;;;;;8.98;8.18;;;;;;;18.99;68.59;96832.94;4962329;29;20032;-78
2021/09/11 04:33:10;;;;;;;12.55;8.60;;;;;;;18.97;68.65;96836.84;4962354;29;20048;-79
2021/09/11 04:35:38;;;;;;;10.00;8.93;;;;;;;18.98;68.62;96838.44;4962206;29;20039;-78
2021/09/11 04:38:06;;;;;;;9.07;8.05;;;;;;;18.97;68.61;96842.94;4962268;29;20038;-78
2021/09/11 04:40:33;;;;;;;9.13;8.23;;;;;;;18.98;68.46;96838.44;4962049;29;20095;-79
2021/09/11 04:43:03;;;;;;;8.55;7.68;;;;;;;18.97;68.29;96842.13;4962159;29;20051;-78
2021/09/11 04:45:31;;;;;;;8.90;8.00;;;;;;;18.96;68.31;96840.50;4961942;29;20040;-78
2021/09/11 04:47:58;;;;;;;12.68;8.27;;;;;;;18.94;68.32;96846.03;4961993;29;20035;-78
2021/09/11 04:50:27;;;;;;;9.05;7.85;;;;;;;18.96;68.52;96851.06;4961931;29;20191;-79
2021/09/11 04:52:55;;;;;;;8.82;7.80;;;;;;;18.95;68.44;96845.00;4961810;29;20039;-79
2021/09/11 04:55:23;;;;;;;8.05;7.35;;;;;;;18.96;68.43;96848.44;4961975;29;20103;-78
2021/09/11 04:57:51;;;;;;;10.05;7.93;;;;;;;18.98;68.27;96851.66;4961735;29;20046;-78
2021/09/11 05:00:18;;;;;;;9.35;7.60;;;;;;;19.00;68.39;96844.31;4961753;29;20038;-78
2021/09/11 05:02:46;;;;;;;8.00;7.25;;;;;;;19.03;68.25;96847.31;4960037;29;20130;-78
2021/09/11 05:05:15;;;;;;;8.48;7.05;;;;;;;19.04;68.05;96840.97;4961453;29;20031;-78
2021/09/11 05:07:44;;;;;;;8.63;7.80;;;;;;;19.04;68.29;96848.09;4961618;29;20032;-78
2021/09/11 05:10:12;;;;;;;9.68;7.22;;;;;;;19.04;67.95;96850.75;4961446;29;20036;-79
2021/09/11 05:12:39;;;;;;;10.38;8.10;;;;;;;19.06;67.88;96848.69;4960667;29;20028;-79
2021/09/11 05:15:08;;;;;;;8.32;7.53;;;;;;;19.03;67.85;96846.50;4961493;29;20065;-79
2021/09/11 05:17:36;;;;;;;9.38;8.48;;;;;;;19.00;68.02;96854.88;4961428;29;20036;-78
2021/09/11 05:20:04;;;;;;;8.35;7.47;;;;;;;18.94;68.01;96854.78;4961316;29;20040;-79
2021/09/11 05:22:32;;;;;;;8.68;7.88;;;;;;;18.89;68.34;96854.66;4961333;28;20099;-78
2021/09/11 05:25:01;;;;;;;9.02;8.07;;;;;;;18.84;68.49;96864.28;4961090;29;20115;-78
2021/09/11 05:27:29;;;;;;;9.13;8.23;;;;;;;18.82;68.38;96856.59;4961288;29;20048;-78
2021/09/11 05:29:56;;;;;;;8.40;7.60;;;;;;;18.86;68.61;96862.22;4961166;29;20038;-78
2021/09/11 05:32:24;;;;;;;9.15;8.25;;;;;;;18.92;68.80;96856.84;4961349;29;20024;-78
2021/09/11 05:34:52;;;;;;;9.38;8.48;;;;;;;18.96;68.27;96865.13;4961121;29;20035;-78
2021/09/11 05:37:19;;;;;;;9.27;8.27;;;;;;;18.95;68.40;96858.22;4961200;29;20070;-78
2021/09/11 05:39:47;;;;;;;10.65;8.85;;;;;;;18.96;68.45;96859.84;4960963;29;20031;-78
2021/09/11 05:42:17;;;;;;;8.75;7.90;;;;;;;18.93;68.35;96861.09;4960897;29;20044;-79
2021/09/11 05:44:44;;;;;;;10.45;9.05;;;;;;;18.94;68.39;96865.34;4961068;29;20070;-78
2021/09/11 05:47:12;;;;;;;8.70;7.80;;;;;;;18.96;68.65;96870.41;4960898;29;20039;-78
2021/09/11 05:49:39;;;;;;;37.72;28.70;;;;;;;19.01;68.70;96867.09;4960739;29;20046;-78
2021/09/11 05:52:07;;;;;;;13.60;10.55;;;;;;;19.06;68.41;96870.63;4961007;29;20099;-78
2021/09/11 05:54:35;;;;;;;10.25;8.90;;;;;;;19.11;68.39;96873.41;4960738;29;20095;-79
2021/09/11 05:57:03;;;;;;;8.50;7.63;;;;;;;19.19;68.29;96877.53;4960820;29;20052;-79
2021/09/11 05:59:32;;;;;;;8.07;7.38;;;;;;;19.28;68.59;96878.00;4960699;29;20091;-78
2021/09/11 06:02:00;;;;;;;8.20;7.40;;;;;;;19.32;68.55;96873.88;4960689;29;20040;-78
2021/09/11 06:04:28;;;;;;;9.95;8.93;;;;;;;19.32;67.72;96873.88;4960750;29;20060;-78
2021/09/11 06:06:56;;;;;;;10.05;9.05;;;;;;;19.27;67.69;96879.84;4960577;29;20164;-78
2021/09/11 06:09:24;;;;;;;9.20;8.40;;;;;;;19.24;68.02;96877.69;4960623;29;20063;-79
2021/09/11 06:11:52;;;;;;;9.50;8.60;;;;;;;19.25;67.61;96886.41;4960406;29;20035;-78
2021/09/11 06:14:19;;;;;;;8.75;7.80;;;;;;;19.22;67.88;96887.69;4960684;29;20097;-78
2021/09/11 06:16:48;;;;;;;8.55;7.65;;;;;;;19.21;67.88;96886.06;4960509;29;20082;-78
2021/09/11 06:19:16;;;;;;;8.95;7.82;;;;;;;19.22;67.95;96887.69;4970960;23;20063;-82
2021/09/11 06:21:44;;;;;;;9.10;8.25;;;;;;;19.23;67.88;96891.91;4950999;29;20051;-80
2021/09/11 06:24:12;;;;;;;8.65;7.82;;;;;;;19.23;67.94;96885.81;4952013;29;20113;-80
2021/09/11 06:26:39;;;;;;;10.82;8.13;;;;;;;19.19;67.99;96882.81;4951350;29;20481;-79
2021/09/11 06:29:07;;;;;;;8.68;7.78;;;;;;;19.20;68.49;96884.44;4950100;29;20052;-80
2021/09/11 06:31:34;;;;;;;9.38;7.95;;;;;;;19.27;68.47;96882.50;4930237;29;20054;-82
2021/09/11 06:34:03;;;;;;;10.57;8.48;;;;;;;19.30;67.93;96889.16;4927659;29;20091;-78
2021/09/11 06:36:31;;;;;;;9.02;8.23;;;;;;;19.28;67.86;96889.38;4928044;29;20055;-82
2021/09/11 06:38:59;;;;;;;9.57;8.60;;;;;;;19.25;67.85;96887.19;4930119;29;20063;-82
2021/09/11 06:41:26;;;;;;;8.98;8.07;;;;;;;19.23;67.80;96886.63;4930301;29;20125;-78
2021/09/11 06:43:54;;;;;;;10.32;9.20;;;;;;;19.22;67.99;96895.59;4930196;29;20441;-82
2021/09/11 06:46:21;;;;;;;22.73;14.50;;;;;;;19.25;68.45;96889.06;4927852;29;20048;-82
2021/09/11 06:48:49;;;;;;;9.23;8.32;;;;;;;19.26;67.82;96891.47;4927555;29;20056;-78
2021/09/11 06:51:18;;;;;;;9.15;8.23;;;;;;;19.29;67.90;96896.28;4927836;29;20058;-80
2021/09/11 06:53:45;;;;;;;7.80;7.00;;;;;;;19.36;67.76;96896.19;4935770;29;20044;-84
2021/09/11 06:56:13;;;;;;;8.30;7.50;;;;;;;19.43;67.36;96888.13;4934175;29;20510;-83
2021/09/11 06:58:40;;;;;;;8.73;6.90;;;;;;;19.46;67.30;96888.47;4934201;29;20070;-82
2021/09/11 07:01:08;;;;;;;8.52;7.10;;;;;;;19.54;67.79;96889.94;4932388;29;20056;-79
2021/09/11 07:03:36;;;;;;;7.10;6.47;;;;;;;19.63;67.55;96891.19;4931544;29;20059;-80
2021/09/11 07:06:04;;;;;;;6.97;6.20;;;;;;;19.72;66.96;96889.03;4931380;29;20075;-82
2021/09/11 07:08:34;;;;;;;6.80;5.82;;;;;;;19.82;67.02;96899.03;4931666;29;20054;-83
2021/09/11 07:11:02;;;;;;;7.18;5.70;;;;;;;19.87;67.01;96899.94;4933851;29;20059;-79
2021/09/11 07:13:29;;;;;;;7.60;5.88;;;;;;;19.94;66.43;96899.81;4933156;29;20516;-79
2021/09/11 07:15:57;;;;;;;7.07;5.32;;;;;;;19.97;66.26;96902.00;4933439;29;20060;-80
2021/09/11 07:18:24;;;;;;;8.95;6.00;;;;;;;20.00;66.13;96901.53;4932450;29;20052;-78
2021/09/11 07:20:52;;;;;;;5.82;5.28;;;;;;;20.04;66.14;96907.97;4930177;29;20062;-79
2021/09/11 07:23:20;;;;;;;8.07;7.28;;;;;;;20.07;65.80;96907.50;4929518;29;20048;-81
2021/09/11 07:25:49;;;;;;;15.38;12.30;;;;;;;20.10;66.01;96914.19;4929743;29;20495;-79
2021/09/11 07:28:16;;;;;;;7.90;7.10;;;;;;;20.14;65.97;96908.19;4929644;29;20124;-81
2021/09/11 07:30:44;;;;;;;5.70;5.20;;;;;;;20.20;65.75;96910.91;4928871;29;20056;-82
2021/09/11 07:33:11;;;;;;;6.68;6.07;;;;;;;20.22;65.58;96909.63;4928444;29;20147;-78
2021/09/11 07:35:39;;;;;;;7.45;6.10;;;;;;;20.23;65.51;96919.22;4929024;29;20058;-78
2021/09/11 07:38:07;;;;;;;6.82;5.82;;;;;;;20.24;65.83;96925.31;4931619;29;20048;-81
2021/09/11 07:40:34;;;;;;;6.70;6.10;;;;;;;20.26;65.78;96923.22;4930401;29;20048;-78
2021/09/11 07:43:04;;;;;;;6.15;5.55;;;;;;;20.28;65.90;96926.44;4930709;29;20499;-80
2021/09/11 07:45:31;;;;;;;6.90;6.30;;;;;;;20.28;65.49;96937.03;4930875;29;20059;-79
2021/09/11 07:47:59;;;;;;;6.35;5.75;;;;;;;20.25;65.89;96929.56;4931058;29;20425;-80
2021/09/11 07:50:28;;;;;;;6.25;5.05;;;;;;;20.24;66.13;96934.03;4934748;29;20561;-78
2021/09/11 07:52:56;;;;;;;7.43;5.90;;;;;;;20.23;65.81;96931.66;4932052;29;20154;-80
2021/09/11 07:55:24;;;;;;;6.40;5.80;;;;;;;20.23;66.15;96937.75;4932611;29;20060;-82
2021/09/11 07:57:51;;;;;;;6.55;5.82;;;;;;;20.25;65.93;96942.81;4931216;29;20054;-79
2021/09/11 08:00:20;;;;;;;6.75;5.60;;;;;;;20.26;66.06;96939.13;4931114;29;20059;-78
2021/09/11 08:02:48;;;;;;;7.38;5.93;;;;;;;20.27;65.65;96935.41;4930766;29;20052;-81
2021/09/11 08:05:16;;;;;;;6.32;5.68;;;;;;;20.28;65.36;96937.03;4931683;29;20075;-81
2021/09/11 08:07:44;;;;;;;5.78;5.28;;;;;;;20.29;65.29;96943.94;4931662;29;20123;-82
2021/09/11 08:10:12;;;;;;;5.65;5.05;;;;;;;20.29;65.12;96943.94;4931269;29;20051;-79
2021/09/11 08:12:40;;;;;;;4.57;4.18;;;;;;;20.28;65.45;96945.78;4931549;29;20300;-79
2021/09/11 08:15:08;;;;;;;5.20;4.70;;;;;;;20.29;65.71;96947.41;4929110;29;20478;-81
2021/09/11 08:17:37;;;;;;;5.00;4.60;;;;;;;20.29;65.63;96947.41;4929815;29;20461;-83
2021/09/11 08:20:07;;;;;;;4.65;4.07;;;;;;;20.27;65.60;96948.66;4929919;29;20056;-78
2021/09/11 08:22:35;;;;;;;4.70;4.20;;;;;;;20.26;65.53;96949.72;4930307;29;20056;-81
2021/09/11 08:25:03;;;;;;;4.53;4.13;;;;;;;20.27;65.61;96948.66;4929755;29;20055;-80
2021/09/11 08:27:30;;;;;;;5.05;4.55;;;;;;;20.26;65.91;96957.66;4929669;29;20048;-80
2021/09/11 08:29:58;;;;;;;5.15;4.65;;;;;;;20.20;65.80;96959.38;4928387;29;20044;-81
2021/09/11 08:32:26;;;;;;;6.30;4.32;;;;;;;20.15;65.99;96960.09;4929557;29;20052;-78
2021/09/11 08:34:55;;;;;;;4.53;4.13;;;;;;;20.12;66.17;96957.94;4930614;29;20056;-79
2021/09/11 08:37:22;;;;;;;4.75;3.95;;;;;;;20.09;66.67;96955.72;4938226;29;20073;-80
2021/09/11 08:39:50;;;;;;;4.00;3.70;;;;;;;20.10;66.95;96959.19;4937782;29;20044;-81
2021/09/11 08:42:20;;;;;;;5.18;3.67;;;;;;;20.08;66.97;96962.06;4939706;29;20059;-82
2021/09/11 08:44:48;;;;;;;4.30;3.90;;;;;;;20.04;67.68;96960.94;4942769;29;20032;-83
2021/09/11 08:47:16;;;;;;;5.20;4.70;;;;;;;19.98;67.92;96969.78;4940700;29;20056;-80
2021/09/11 08:49:43;;;;;;;4.38;3.80;;;;;;;19.93;68.48;96959.09;4935287;29;20052;-80
2021/09/11 08:52:13;;;;;;;4.60;4.15;;;;;;;19.89;68.94;96964.06;4935511;29;20052;-80
2021/09/11 08:54:41;;;;;;;4.55;4.13;;;;;;;19.91;69.54;96955.88;4934753;29;20048;-81
2021/09/11 08:57:21;;;;;;;4.95;4.55;;;;;;;19.91;69.89;96955.88;4933851;29;20052;-80
2021/09/11 08:59:49;;;;;;;7.72;4.57;;;;;;;19.90;69.73;96964.88;4933136;29;20506;-79
2021/09/11 09:02:18;;;;;;;6.03;4.60;;;;;;;19.91;69.88;96961.19;4936755;29;20060;-83
2021/09/11 09:04:49;;;;;;;5.68;4.82;;;;;;;19.88;69.83;96957.16;4937649;29;20052;-81
2021/09/11 09:07:37;;;;;;;6.70;4.72;;;;;;;19.88;70.54;96953.72;4934371;29;20160;-81
2021/09/11 09:10:08;;;;;;;4.53;4.10;;;;;;;19.89;70.82;96952.66;4931528;29;20058;-81
2021/09/11 09:12:38;;;;;;;5.30;4.80;;;;;;;19.91;70.50;96955.88;4932869;29;20526;-81
2021/09/11 09:15:09;;;;;;;5.45;4.70;;;;;;;19.91;70.93;96958.53;4931517;29;20060;-79
2021/09/11 09:17:43;;;;;;;6.38;4.63;;;;;;;19.92;71.35;96954.88;4930595;29;20044;-78
2021/09/11 09:20:13;;;;;;;4.82;4.43;;;;;;;19.96;71.21;96958.63;4930060;29;20056;-78
2021/09/11 09:22:42;;;;;;;5.38;4.40;;;;;;;20.02;71.12;96960.34;4930302;29;20056;-79
2021/09/11 09:25:21;;;;;;;5.38;4.30;;;;;;;20.06;70.73;96958.84;4930419;29;20076;-79
2021/09/11 09:27:50;;;;;;;5.07;4.57;;;;;;;20.10;70.32;96954.69;4930420;29;20438;-77
2021/09/11 09:30:24;;;;;;;5.15;4.65;;;;;;;20.13;70.06;96964.81;4929344;29;20060;-82
2021/09/11 09:32:52;;;;;;;4.97;4.57;;;;;;;20.14;69.93;96961.16;4930008;29;20060;-78
2021/09/11 09:35:25;;;;;;;4.40;3.95;;;;;;;20.16;70.42;96959.06;4928827;29;20063;-84
2021/09/11 09:37:55;;;;;;;5.90;4.70;;;;;;;20.19;70.22;96967.59;4928715;29;20115;-79
2021/09/11 09:40:50;;;;;;;3.97;3.67;;;;;;;20.23;70.31;96972.19;4927751;29;20052;-78
2021/09/11 09:43:30;;;;;;;4.38;3.95;;;;;;;20.27;69.90;96968.03;4884590;29;20056;-81
2021/09/11 09:46:04;;;;;;;3.55;3.25;;;;;;;20.30;69.49;96961.44;4928737;29;20063;-79
2021/09/11 09:48:33;;;;;;;4.15;3.25;;;;;;;20.33;69.65;96964.44;4927410;29;20048;-79
2021/09/11 09:51:04;;;;;;;3.22;2.92;;;;;;;20.38;69.39;96966.38;4927838;29;20048;-78
2021/09/11 09:53:34;;;;;;;3.38;3.08;;;;;;;20.40;69.25;96972.25;4926971;29;20062;-82
2021/09/11 09:56:02;;;;;;;3.53;3.22;;;;;;;20.42;68.80;96966.69;4927243;29;20427;-78
2021/09/11 09:58:30;;;;;;;3.40;3.10;;;;;;;20.40;68.91;96964.31;4925438;29;20052;-80
2021/09/11 10:00:58;;;;;;;3.15;2.60;;;;;;;20.37;68.96;96972.72;4926117;29;20052;-78
2021/09/11 10:03:26;;;;;;;2.60;2.40;;;;;;;20.35;69.47;96972.13;4925578;29;20059;-80
2021/09/11 10:05:59;;;;;;;3.10;2.78;;;;;;;20.34;69.26;96967.91;4925434;29;20097;-79
2021/09/11 10:08:29;;;;;;;2.80;2.60;;;;;;;20.38;69.21;96971.69;4924728;29;20494;-79
2021/09/11 10:10:58;;;;;;;2.80;2.58;;;;;;;20.41;68.93;96971.22;4925405;29;20053;-78
2021/09/11 10:13:28;;;;;;;2.30;1.88;;;;;;;20.43;68.97;96965.69;4926495;29;20062;-80
2021/09/11 10:15:57;;;;;;;2.97;2.25;;;;;;;20.45;69.05;96971.56;4927463;29;20051;-79
2021/09/11 10:18:42;;;;;;;2.10;1.90;;;;;;;20.52;69.28;96962.41;4926049;29;20056;-79
2021/09/11 10:21:27;;;;;;;3.80;1.83;;;;;;;20.58;69.24;96960.69;4926104;29;20056;-77
2021/09/11 10:24:30;;;;;;;2.55;2.35;;;;;;;20.66;68.92;96956.84;4927430;29;20051;-79
2021/09/11 10:27:07;;;;;;;2.63;2.22;;;;;;;20.68;68.52;96952.13;4927233;29;20237;-78
2021/09/11 10:29:39;;;;;;;2.90;1.92;;;;;;;20.71;68.76;96949.81;4927263;29;20059;-79
2021/09/11 10:32:08;;;;;;;;;;;;;;;20.77;68.37;96948.88;4927662;29;20521;-78
2021/09/11 10:34:47;;;;;;;2.17;1.98;;;;;;;20.81;68.18;96938.56;4926521;29;20061;-80
2021/09/11 10:37:27;;;;;;;1.92;1.83;;;;;;;20.84;68.36;96938.09;4927271;29;20060;-80
2021/09/11 10:40:15;;;;;;;2.47;2.28;;;;;;;20.88;67.56;96944.53;4926357;29;20056;-78
2021/09/11 10:43:09;;;;;;;1.95;1.85;;;;;;;20.94;67.67;96948.06;4927483;29;20055;-77
2021/09/11 10:45:45;;;;;;;2.60;2.40;;;;;;;20.97;66.90;96937.81;4927271;29;20052;-79
2021/09/11 10:48:41;;;;;;;2.20;2.10;;;;;;;20.99;67.14;96946.31;4925725;29;20435;-81
2021/09/11 10:51:13;;;;;;;2.58;2.38;;;;;;;20.99;67.10;96938.38;4927673;29;20048;-80
2021/09/11 10:53:56;;;;;;;2.05;1.95;;;;;;;20.99;67.43;96938.38;4930732;29;20052;-79
2021/09/11 10:56:25;;;;;;;2.00;1.90;;;;;;;21.02;67.06;96938.94;4929007;29;20059;-80
2021/09/11 10:59:26;;;;;;;2.00;1.90;;;;;;;21.06;66.96;96937.41;4928778;29;20521;-80
2021/09/11 11:02:06;;;;;;;2.10;1.90;;;;;;;21.13;67.03;96935.41;4927965;29;20056;-80
2021/09/11 11:04:36;;;;;;;1.67;1.58;;;;;;;21.16;66.82;96932.25;4927247;29;20053;-79
2021/09/11 11:07:05;;;;;;;1.80;1.70;;;;;;;21.18;66.69;96932.81;4927157;29;20426;-81
2021/09/11 11:09:38;;;;;;;2.05;1.88;;;;;;;21.23;66.19;96924.13;4927216;29;20093;-83
2021/09/11 11:12:06;;;;;;;1.77;1.67;;;;;;;21.43;66.34;96923.66;4933613;29;20063;-81
2021/09/11 11:14:37;;;;;;;1.77;1.50;;;;;;;21.86;65.97;96927.44;4931940;29;20462;-79
2021/09/11 11:17:05;;;;;;;1.77;1.58;;;;;;;22.57;63.86;96917.69;4929300;29;20071;-81
2021/09/11 11:19:34;;;;;;;1.77;1.67;;;;;;;23.01;61.85;96922.91;4927028;29;20403;-80
2021/09/11 11:22:06;;;;;;;1.38;1.27;;;;;;;23.30;60.94;96914.59;4927902;29;20048;-79
2021/09/11 11:24:35;;;;;;;1.73;1.63;;;;;;;23.52;60.38;96909.16;4928990;29;20052;-79
2021/09/11 11:27:05;;;;;;;1.67;1.58;;;;;;;23.62;59.86;96911.91;4926733;29;20055;-78
2021/09/11 11:29:34;;;;;;;1.90;1.80;;;;;;;23.66;58.90;96906.88;4925281;29;20045;-78
2021/09/11 11:32:04;;;;;;;2.05;1.85;;;;;;;23.69;58.74;96908.19;4925325;29;20056;-78
2021/09/11 11:34:32;;;;;;;2.08;1.98;;;;;;;23.70;58.54;96899.94;4925320;29;20083;-77
2021/09/11 11:37:02;;;;;;;1.65;1.55;;;;;;;23.73;57.23;96896.78;4924607;29;20502;-77
2021/09/11 11:39:35;;;;;;;1.73;1.63;;;;;;;23.80;57.07;96891.25;4923869;29;20054;-78
2021/09/11 11:42:06;;;;;;;2.50;1.50;;;;;;;23.84;56.01;96889.66;4923230;29;20521;-77
2021/09/11 11:44:39;;;;;;;1.60;1.50;;;;;;;23.97;56.10;96896.38;4924767;29;20055;-78